Terminal Aerodrome Forecast
Issued by NWS

Home | Current Version | Previous Version | Text Only | Print | Product List | Glossary On
Versions: 1 2 3 4 5 6 7 8 9 10 11 12 13 14 15 16 17 18 19 20 21 22 23 24 25 26 27 28 29
000
FTUS41 KCTP 261522 AAC
TAFBFD
TAF AMD
KBFD 261522Z 2615/2712 14010G15KT 4SM BR OVC006
     FM261800 15010G20KT P6SM OVC007
     FM270000 16010G15KT 4SM -SHRA OVC008
     FM270900 19005KT 3SM -RADZ BR OVC005=

USA.gov is the U.S. government's official web portal to all federal, state and local government web resources and services.